createdAt,value
2017-10-15T00:00:53.344Z,0
2017-10-15T00:01:57.589Z,0
2017-10-15T00:02:58.984Z,0
2017-10-15T00:04:01.436Z,0
2017-10-15T00:05:03.147Z,0
2017-10-15T00:06:06.371Z,0
2017-10-15T00:07:08.843Z,0
2017-10-15T00:08:11.677Z,0
2017-10-15T00:12:10.061Z,0
2017-10-15T00:13:12.435Z,0
2017-10-15T00:14:15.534Z,0
2017-10-15T00:15:18.637Z,0
2017-10-15T00:16:21.450Z,0
2017-10-15T00:17:23.880Z,0
2017-10-15T00:18:28.795Z,0
2017-10-15T00:19:31.718Z,0
2017-10-15T00:20:35.081Z,0
2017-10-15T00:21:38.560Z,0
2017-10-15T00:22:41.719Z,0
2017-10-15T00:23:44.864Z,0
2017-10-15T00:24:48.402Z,0
2017-10-15T00:25:51.326Z,0
2017-10-15T00:26:54.020Z,0
2017-10-15T00:27:57.365Z,0
2017-10-15T00:29:00.879Z,0
2017-10-15T00:30:04.766Z,0
2017-10-15T00:31:07.874Z,0
2017-10-15T00:32:10.912Z,0
2017-10-15T00:33:13.919Z,0
2017-10-15T00:34:16.386Z,0
2017-10-15T00:35:18.938Z,0
2017-10-15T00:36:21.719Z,0
2017-10-15T00:37:24.469Z,0
2017-10-15T00:38:27.194Z,0
2017-10-15T00:39:29.573Z,0
2017-10-15T00:40:32.161Z,0
2017-10-15T00:41:34.540Z,0
2017-10-15T00:42:36.800Z,0
2017-10-15T00:43:39.051Z,0
2017-10-15T00:44:41.496Z,0
2017-10-15T00:45:43.793Z,0
2017-10-15T00:46:46.285Z,0
2017-10-15T00:47:48.838Z,0
2017-10-15T00:48:51.353Z,0
2017-10-15T00:49:53.811Z,0
2017-10-15T00:50:56.246Z,0
2017-10-15T00:51:58.505Z,0
2017-10-15T00:53:01.397Z,0
2017-10-15T00:54:05.320Z,0
2017-10-15T00:55:12.056Z,0
2017-10-15T00:56:16.352Z,0
2017-10-15T00:57:20.994Z,0
2017-10-15T00:58:24.919Z,0
2017-10-15T00:59:35.466Z,0
2017-10-15T01:00:40.861Z,0
2017-10-15T01:01:46.043Z,0
2017-10-15T01:02:51.216Z,0
2017-10-15T12:39:39.494Z,47136
2017-10-15T12:40:40.936Z,46144
2017-10-15T12:41:42.408Z,47168
2017-10-15T12:42:43.825Z,48128
2017-10-15T12:43:45.269Z,48384
2017-10-15T12:44:46.727Z,47936
2017-10-15T12:45:48.149Z,47008
2017-10-15T12:46:49.589Z,46816
2017-10-15T12:47:51.040Z,47104
2017-10-15T12:48:52.817Z,47520
2017-10-15T12:49:54.267Z,48768
2017-10-15T12:50:55.748Z,48832
2017-10-15T12:51:57.196Z,48320
2017-10-15T12:52:58.631Z,47360
2017-10-15T12:54:00.092Z,48416
2017-10-15T12:55:01.547Z,49536
2017-10-15T12:56:03.010Z,48832
2017-10-15T12:57:04.470Z,49216
2017-10-15T12:58:05.938Z,51328
2017-10-15T12:59:07.396Z,49984
2017-10-15T13:00:08.850Z,47936
2017-10-15T13:01:10.320Z,49792
2017-10-15T13:02:11.783Z,51008
2017-10-15T13:03:13.225Z,50368
2017-10-15T13:04:14.662Z,50912
2017-10-15T13:05:16.264Z,50880
2017-10-15T13:06:17.700Z,49920
2017-10-15T13:07:19.615Z,50368
2017-10-15T13:08:21.058Z,51296
2017-10-15T13:09:22.489Z,50976
2017-10-15T13:10:23.942Z,47584
2017-10-15T13:11:25.372Z,46368
2017-10-15T13:12:26.872Z,47296
2017-10-15T13:13:28.337Z,46400
2017-10-15T13:14:29.810Z,47872
2017-10-15T13:15:31.249Z,50592
2017-10-15T13:16:32.794Z,53184
2017-10-15T13:17:34.235Z,54336
2017-10-15T13:18:35.674Z,52512
2017-10-15T13:19:37.093Z,49248
2017-10-15T13:20:38.513Z,51872
2017-10-15T13:21:39.953Z,53728
2017-10-15T13:22:41.382Z,53088
2017-10-15T13:23:42.930Z,47616
2017-10-15T13:24:44.432Z,41760
2017-10-15T13:25:46.593Z,37472
2017-10-15T13:26:48.626Z,33376
2017-10-15T13:27:50.270Z,32000
2017-10-15T13:28:51.827Z,31776
2017-10-15T13:29:53.404Z,32096
2017-10-15T13:30:54.913Z,31904
2017-10-15T13:31:56.367Z,31520
2017-10-15T13:32:57.964Z,31680
2017-10-15T13:33:59.480Z,32096
2017-10-15T13:35:00.921Z,31488
2017-10-15T13:36:02.385Z,30656
2017-10-15T13:37:03.850Z,30912
2017-10-15T13:38:05.304Z,30752
2017-10-15T13:39:06.743Z,30560
2017-10-15T13:40:08.217Z,30304
2017-10-15T13:41:09.700Z,30656
2017-10-15T13:42:11.213Z,30848
2017-10-15T13:43:12.800Z,30528
2017-10-15T13:44:14.415Z,30016
2017-10-15T13:45:15.884Z,30048
2017-10-15T13:46:17.438Z,29728
2017-10-15T13:47:18.953Z,29632
2017-10-15T13:48:20.504Z,29600
2017-10-15T13:49:21.952Z,29440
2017-10-15T13:50:23.400Z,29440
2017-10-15T13:51:24.836Z,29280
2017-10-15T13:52:26.297Z,29472
2017-10-15T13:53:27.740Z,29088
2017-10-15T13:54:29.224Z,28480
2017-10-15T13:55:30.715Z,28480
2017-10-15T13:56:32.164Z,28928
2017-10-15T13:57:33.608Z,28800
2017-10-15T13:58:35.116Z,29088
2017-10-15T13:59:36.602Z,29344
2017-10-15T14:00:38.030Z,29408
2017-10-15T14:01:39.490Z,29536
2017-10-15T14:02:40.949Z,29376
2017-10-15T14:03:42.418Z,28416
2017-10-15T14:04:43.865Z,28640
2017-10-15T14:05:45.333Z,28544
2017-10-15T14:06:46.877Z,28192
2017-10-15T14:07:48.447Z,28512
2017-10-15T14:08:50.057Z,27584
2017-10-15T14:09:52.546Z,28160
2017-10-15T14:10:53.959Z,28544
2017-10-15T14:11:55.417Z,29280
2017-10-15T14:12:56.855Z,31008
2017-10-15T14:13:58.289Z,32352
2017-10-15T14:14:59.743Z,33792
2017-10-15T14:16:01.323Z,33856
2017-10-15T14:17:02.767Z,35616
2017-10-15T14:18:04.296Z,38464
2017-10-15T14:19:05.780Z,38752
2017-10-15T14:20:07.240Z,38944
2017-10-15T14:21:08.702Z,39104
2017-10-15T14:22:10.205Z,39936
2017-10-15T14:23:11.788Z,40448
2017-10-15T14:24:13.384Z,40896
2017-10-15T14:25:14.920Z,43520
2017-10-15T14:26:16.359Z,44928
2017-10-15T14:27:17.897Z,43680
2017-10-15T14:28:19.388Z,42880
2017-10-15T14:29:20.906Z,41920
2017-10-15T14:30:22.466Z,40096
2017-10-15T14:31:23.972Z,39744
2017-10-15T14:32:25.595Z,39328
2017-10-15T14:33:27.058Z,38848
2017-10-15T14:34:28.549Z,38432
2017-10-15T14:35:30.037Z,37824
2017-10-15T14:36:31.596Z,36608
2017-10-15T14:37:33.095Z,36576
2017-10-15T14:38:34.570Z,38080
2017-10-15T14:39:36.091Z,40512
2017-10-15T14:40:37.747Z,40064
2017-10-15T14:41:39.203Z,38112
2017-10-15T14:42:41.382Z,37088
2017-10-15T14:43:42.934Z,36192
2017-10-15T14:44:44.456Z,35072
2017-10-15T14:45:45.999Z,35904
2017-10-15T14:46:47.502Z,36416
2017-10-15T14:47:48.988Z,31552
2017-10-15T14:48:50.582Z,23648
2017-10-15T14:49:52.092Z,19872
2017-10-15T14:50:53.621Z,20384
2017-10-15T14:51:55.221Z,21024
2017-10-15T14:52:56.827Z,21376
2017-10-15T14:53:58.371Z,22688
2017-10-15T14:54:59.904Z,25248
2017-10-15T14:56:01.443Z,27648
2017-10-15T14:57:02.915Z,30048
2017-10-15T14:58:04.341Z,32544
2017-10-15T14:59:06.100Z,34336
2017-10-15T15:00:07.625Z,38752
2017-10-15T15:01:09.047Z,41280
2017-10-15T15:02:10.496Z,42656
2017-10-15T15:03:12.032Z,41056
2017-10-15T15:04:13.559Z,39488
2017-10-15T15:05:14.996Z,38784
2017-10-15T15:06:16.447Z,37504
2017-10-15T15:07:17.877Z,38720
2017-10-15T15:08:19.311Z,39104
2017-10-15T15:09:20.917Z,37408
2017-10-15T15:10:22.413Z,36416
2017-10-15T15:11:23.851Z,36544
2017-10-15T15:12:25.394Z,37344
2017-10-15T15:13:26.858Z,37792
2017-10-15T15:14:29.343Z,37184
2017-10-15T15:15:30.825Z,36512
2017-10-15T15:16:32.389Z,35744
2017-10-15T15:17:33.837Z,35264
2017-10-15T15:18:35.273Z,35040
2017-10-15T15:19:36.728Z,33440
2017-10-15T15:20:38.153Z,31264
2017-10-15T15:21:39.598Z,30816
2017-10-15T15:22:41.037Z,30208
2017-10-15T15:23:42.547Z,29440
2017-10-15T15:24:44.387Z,29600
2017-10-15T15:25:45.963Z,29024
2017-10-15T15:26:47.569Z,27232
2017-10-15T15:27:49.106Z,25568
2017-10-15T15:28:50.710Z,25536
2017-10-15T15:29:52.528Z,25888
2017-10-15T15:30:54.093Z,26144
2017-10-15T15:31:55.619Z,25472
2017-10-15T15:32:57.139Z,24736
2017-10-15T15:33:58.673Z,24576
2017-10-15T15:35:00.218Z,23776
2017-10-15T15:36:02.593Z,23328
2017-10-15T15:37:04.635Z,22304
2017-10-15T15:38:06.457Z,18752
2017-10-15T15:39:08.417Z,11064
2017-10-15T15:40:09.984Z,3452
2017-10-15T15:41:11.580Z,1548
2017-10-15T15:42:13.071Z,1480
2017-10-15T15:43:14.638Z,1444
2017-10-15T15:44:16.093Z,1412
2017-10-15T15:45:17.692Z,1372
2017-10-15T15:46:19.220Z,1340
2017-10-15T15:47:20.695Z,1300
2017-10-15T15:48:22.168Z,1264
2017-10-15T15:49:23.725Z,1232
2017-10-15T15:54:15.377Z,1068
2017-10-15T15:55:16.800Z,1032
2017-10-15T15:56:18.255Z,1000
2017-10-15T15:57:19.719Z,964
2017-10-15T15:58:21.231Z,932
2017-10-15T15:59:22.651Z,900
2017-10-15T16:00:24.067Z,864
2017-10-15T16:01:25.480Z,832
2017-10-15T16:02:27.096Z,800
2017-10-15T16:03:29.407Z,764
2017-10-15T16:04:30.840Z,732
2017-10-15T16:05:32.283Z,700
2017-10-15T16:06:33.682Z,664
2017-10-15T16:07:35.119Z,632
2017-10-15T16:08:36.558Z,604
2017-10-15T16:09:37.984Z,572
2017-10-15T16:10:39.459Z,540
2017-10-15T16:11:41.040Z,508
2017-10-15T16:12:42.988Z,480
2017-10-15T16:13:44.888Z,448
2017-10-15T16:14:47.036Z,424
2017-10-15T16:15:48.575Z,392
2017-10-15T16:16:50.146Z,364
2017-10-15T16:17:51.703Z,336
2017-10-15T16:18:53.232Z,316
2017-10-15T16:19:54.782Z,288
2017-10-15T16:20:56.393Z,264
2017-10-15T16:21:57.956Z,244
2017-10-15T16:22:59.582Z,224
2017-10-15T16:24:01.116Z,204
2017-10-15T16:25:02.546Z,184
2017-10-15T16:26:03.994Z,164
2017-10-15T16:27:06.800Z,148
2017-10-15T16:28:08.353Z,136
2017-10-15T16:29:09.789Z,120
2017-10-15T16:30:11.374Z,108
2017-10-15T16:31:12.883Z,92
2017-10-15T16:32:18.186Z,84
2017-10-15T16:33:20.726Z,72
2017-10-15T16:35:01.744Z,56
2017-10-15T16:36:03.171Z,48
2017-10-15T16:37:09.788Z,44
2017-10-15T16:38:11.296Z,36
2017-10-15T16:39:13.216Z,32
2017-10-15T16:40:14.878Z,24
2017-10-15T16:41:17.064Z,20
2017-10-15T16:42:18.491Z,16
2017-10-15T16:43:20.026Z,16
2017-10-15T16:44:21.648Z,12
2017-10-15T16:45:23.876Z,8
2017-10-15T16:46:25.405Z,8
2017-10-15T16:47:26.994Z,8
2017-10-15T16:48:28.460Z,4
2017-10-15T16:49:30.024Z,4
2017-10-15T16:50:31.735Z,4
2017-10-15T16:51:33.357Z,4
2017-10-15T16:52:34.894Z,0
2017-10-15T16:53:39.149Z,4
2017-10-15T16:55:24.400Z,0
2017-10-15T16:56:26.572Z,0
2017-10-15T16:57:28.246Z,0
2017-10-15T16:58:29.964Z,0
2017-10-15T16:59:32.198Z,0
2017-10-15T17:00:33.884Z,0
2017-10-15T17:01:35.452Z,0
2017-10-15T17:02:37.032Z,0
2017-10-15T17:03:38.585Z,0
2017-10-15T17:04:41.226Z,0
2017-10-15T17:05:43.796Z,0
2017-10-15T17:06:45.791Z,0
2017-10-15T17:07:48.697Z,0
2017-10-15T17:08:50.656Z,0
2017-10-15T17:09:52.486Z,0
2017-10-15T17:10:54.485Z,0
2017-10-15T17:11:56.331Z,0
2017-10-15T17:12:57.911Z,0
2017-10-15T17:13:59.560Z,0
2017-10-15T17:15:00.927Z,0
2017-10-15T17:16:02.501Z,0
2017-10-15T17:17:04.098Z,0
2017-10-15T17:18:06.248Z,0
2017-10-15T17:19:07.852Z,0
2017-10-15T17:20:09.589Z,0
2017-10-15T17:21:11.453Z,0
2017-10-15T17:22:13.366Z,0
2017-10-15T17:23:15.582Z,0
2017-10-15T17:24:17.665Z,0
2017-10-15T17:25:19.660Z,0
2017-10-15T17:26:21.674Z,0
2017-10-15T17:27:23.407Z,0
2017-10-15T17:28:25.151Z,0
2017-10-15T17:29:26.879Z,0
2017-10-15T17:30:29.494Z,0
2017-10-15T17:31:30.939Z,0
2017-10-15T17:32:33.420Z,0
2017-10-15T17:33:35.863Z,0
2017-10-15T17:34:40.506Z,0
2017-10-15T17:35:42.079Z,0
2017-10-15T17:36:43.703Z,0
2017-10-15T17:37:45.332Z,0
2017-10-15T17:38:47.261Z,0
2017-10-15T17:39:53.917Z,0
2017-10-15T17:41:02.251Z,0
2017-10-15T17:42:03.767Z,0
2017-10-15T17:43:05.876Z,0
2017-10-15T17:44:08.713Z,0
2017-10-15T17:45:11.286Z,0
2017-10-15T17:46:14.160Z,0
2017-10-15T17:47:16.304Z,0
2017-10-15T17:48:18.437Z,0
2017-10-15T17:49:20.946Z,0
2017-10-15T17:50:23.068Z,0
2017-10-15T17:51:25.647Z,0
2017-10-15T17:52:28.408Z,0
2017-10-15T17:53:30.597Z,0
2017-10-15T17:54:33.239Z,0
2017-10-15T17:55:35.755Z,0
2017-10-15T17:56:38.150Z,0
2017-10-15T17:57:41.965Z,0
2017-10-15T17:58:44.153Z,0
2017-10-15T17:59:46.368Z,0
2017-10-15T18:00:48.847Z,0
2017-10-15T18:01:51.421Z,0
2017-10-15T18:02:53.682Z,0
2017-10-15T18:03:56.125Z,0
2017-10-15T18:04:58.219Z,0
2017-10-15T18:06:00.409Z,0
2017-10-15T18:07:03.070Z,0
2017-10-15T18:08:06.433Z,0
2017-10-15T18:09:08.472Z,0
2017-10-15T18:10:10.626Z,0
2017-10-15T18:11:12.826Z,0
2017-10-15T18:12:15.352Z,0
2017-10-15T18:13:17.489Z,0
2017-10-15T18:14:20.183Z,0
2017-10-15T18:15:22.452Z,0
2017-10-15T18:16:24.717Z,0
2017-10-15T18:17:27.346Z,0
2017-10-15T18:18:29.703Z,0
2017-10-15T18:19:31.759Z,0
2017-10-15T18:20:34.049Z,0
2017-10-15T18:21:35.675Z,0
2017-10-15T18:22:37.516Z,0
2017-10-15T18:23:39.805Z,0
2017-10-15T18:24:42.627Z,0
2017-10-15T18:25:44.835Z,0
2017-10-15T18:26:47.267Z,0
2017-10-15T18:27:49.848Z,0
2017-10-15T18:28:52.314Z,0
2017-10-15T18:29:55.311Z,0
2017-10-15T18:30:59.447Z,0
2017-10-15T18:32:01.566Z,0
2017-10-15T18:33:04.184Z,0
2017-10-15T18:34:07.124Z,0
2017-10-15T18:35:09.897Z,0
2017-10-15T18:36:12.711Z,0
2017-10-15T18:37:15.875Z,0
2017-10-15T18:38:18.187Z,0
2017-10-15T18:39:21.761Z,0
2017-10-15T18:40:24.458Z,0
2017-10-15T18:41:29.182Z,0
2017-10-15T18:42:34.977Z,0
2017-10-15T18:43:38.548Z,0
2017-10-15T18:44:42.965Z,0
2017-10-15T18:45:46.106Z,0
2017-10-15T18:46:49.112Z,0
2017-10-15T18:50:15.967Z,0
2017-10-15T18:51:18.716Z,0
2017-10-15T18:52:22.204Z,0
2017-10-15T18:54:04.536Z,0
2017-10-15T18:55:11.153Z,0
2017-10-15T18:56:14.831Z,0
2017-10-15T18:57:18.192Z,0
2017-10-15T18:58:21.093Z,0
2017-10-15T18:59:24.551Z,0
2017-10-15T19:00:27.624Z,0
2017-10-15T19:01:32.256Z,0
2017-10-15T19:02:35.089Z,0
2017-10-15T19:03:38.994Z,0
2017-10-15T19:04:41.666Z,0
2017-10-15T19:05:43.933Z,0
2017-10-15T19:06:48.194Z,0
2017-10-15T19:07:50.811Z,0
2017-10-15T19:08:54.194Z,0
2017-10-15T19:09:56.774Z,0
2017-10-15T19:10:59.595Z,0
2017-10-15T19:12:03.371Z,0
2017-10-15T19:13:05.755Z,0
2017-10-15T19:14:07.846Z,0
2017-10-15T19:15:11.041Z,0
2017-10-15T19:16:13.507Z,0
2017-10-15T19:17:15.980Z,0
2017-10-15T19:18:18.296Z,0
2017-10-15T19:19:20.736Z,0
2017-10-15T19:20:23.167Z,0
2017-10-15T19:21:25.517Z,0
2017-10-15T19:22:28.250Z,0
2017-10-15T19:23:30.618Z,0
2017-10-15T19:24:32.843Z,0
2017-10-15T19:25:36.312Z,0
2017-10-15T19:26:38.562Z,0
2017-10-15T19:27:40.981Z,0
2017-10-15T19:28:43.858Z,0
2017-10-15T19:29:46.868Z,0
2017-10-15T19:30:49.073Z,0
2017-10-15T19:31:52.221Z,0
2017-10-15T19:32:55.079Z,0
2017-10-15T19:33:57.741Z,0
2017-10-15T19:35:00.858Z,0
2017-10-15T19:36:03.246Z,0
2017-10-15T19:37:05.535Z,0
2017-10-15T19:38:08.131Z,0
2017-10-15T19:39:10.578Z,0
2017-10-15T19:40:15.102Z,0
2017-10-15T19:41:18.034Z,0
2017-10-15T19:42:19.899Z,0
2017-10-15T19:43:21.878Z,0
2017-10-15T19:44:23.435Z,0
2017-10-15T19:45:26.919Z,0
2017-10-15T19:46:28.574Z,0
2017-10-15T19:47:30.100Z,0
2017-10-15T19:48:32.328Z,0
2017-10-15T19:49:33.932Z,0
2017-10-15T19:50:35.893Z,0
2017-10-15T19:51:37.614Z,0
2017-10-15T19:52:39.533Z,0
2017-10-15T19:53:42.716Z,0
2017-10-15T19:54:44.302Z,0
2017-10-15T19:55:45.890Z,0
2017-10-15T19:56:47.540Z,0
2017-10-15T19:57:49.226Z,0
2017-10-15T19:58:50.952Z,0
2017-10-15T19:59:52.727Z,0
2017-10-15T20:00:55.438Z,0
2017-10-15T20:01:56.989Z,0
2017-10-15T20:02:58.866Z,0
2017-10-15T20:04:01.120Z,0
2017-10-15T20:05:02.781Z,0
2017-10-15T20:06:04.422Z,0
2017-10-15T20:07:05.977Z,0
2017-10-15T20:08:07.520Z,0
2017-10-15T20:09:09.217Z,0
2017-10-15T20:10:10.754Z,0
2017-10-15T20:11:12.300Z,0
2017-10-15T20:12:13.868Z,0
2017-10-15T20:13:15.511Z,0
2017-10-15T20:14:17.106Z,0
2017-10-15T20:15:18.723Z,0
2017-10-15T20:16:20.245Z,0
2017-10-15T20:17:22.861Z,0
2017-10-15T20:18:24.381Z,0
2017-10-15T20:19:26.282Z,0
2017-10-15T20:20:27.836Z,0
2017-10-15T20:21:29.348Z,0
2017-10-15T20:22:31.091Z,0
2017-10-15T20:23:34.004Z,0
2017-10-15T20:24:35.412Z,0
2017-10-15T20:25:37.204Z,0
2017-10-15T20:26:38.757Z,0
2017-10-15T20:27:40.412Z,0
2017-10-15T20:28:42.043Z,0
2017-10-15T20:29:43.707Z,0
2017-10-15T20:30:45.276Z,0
2017-10-15T20:31:46.845Z,0
2017-10-15T20:32:48.494Z,0
2017-10-15T20:33:50.096Z,0
2017-10-15T20:34:51.735Z,0
2017-10-15T20:35:53.301Z,0
2017-10-15T20:36:54.871Z,0
2017-10-15T20:37:56.481Z,0
2017-10-15T20:38:58.096Z,0
2017-10-15T20:39:59.745Z,0
2017-10-15T20:41:01.441Z,0
2017-10-15T20:42:03.082Z,0
2017-10-15T20:43:04.663Z,0
2017-10-15T20:44:06.389Z,0
2017-10-15T20:45:07.900Z,0
2017-10-15T20:46:09.501Z,0
2017-10-15T20:47:11.159Z,0
2017-10-15T20:48:12.936Z,0
2017-10-15T20:49:14.780Z,0
2017-10-15T20:50:16.489Z,0
2017-10-15T20:51:18.050Z,0
2017-10-15T20:52:19.726Z,0
2017-10-15T20:53:21.316Z,0
2017-10-15T20:54:23.040Z,0
2017-10-15T20:55:25.020Z,0
2017-10-15T20:56:26.785Z,0
2017-10-15T20:57:28.478Z,0
2017-10-15T20:58:30.030Z,0
2017-10-15T20:59:31.877Z,0
2017-10-15T21:00:34.860Z,0
2017-10-15T21:01:37.467Z,0
2017-10-15T21:02:39.158Z,0
2017-10-15T21:03:40.775Z,0
2017-10-15T21:04:42.422Z,0
2017-10-15T21:05:44.141Z,0
2017-10-15T21:06:46.498Z,0
2017-10-15T21:07:48.274Z,0
2017-10-15T21:08:50.141Z,0
2017-10-15T21:09:52.376Z,0
2017-10-15T21:10:54.323Z,0
2017-10-15T21:11:56.091Z,0
2017-10-15T21:12:58.712Z,0
2017-10-15T21:14:00.457Z,0
2017-10-15T21:15:02.303Z,0
2017-10-15T21:16:04.048Z,0
2017-10-15T21:17:05.624Z,0
2017-10-15T21:18:07.886Z,0
2017-10-15T21:19:09.552Z,0
2017-10-15T21:20:11.164Z,0
2017-10-15T21:21:12.848Z,0
2017-10-15T21:22:14.522Z,0
2017-10-15T21:23:16.466Z,0
2017-10-15T21:24:18.018Z,0
2017-10-15T21:25:19.668Z,0
2017-10-15T21:26:21.247Z,0
2017-10-15T21:27:22.767Z,0
2017-10-15T21:28:24.491Z,0
2017-10-15T21:29:26.116Z,0
2017-10-15T21:30:28.157Z,0
2017-10-15T21:31:30.577Z,0
2017-10-15T21:32:32.642Z,0
2017-10-15T21:33:34.611Z,0
2017-10-15T21:34:36.981Z,0
2017-10-15T21:35:39.380Z,0
2017-10-15T21:36:41.232Z,0
2017-10-15T21:37:43.439Z,0
2017-10-15T21:38:45.502Z,0
2017-10-15T21:39:47.477Z,0
2017-10-15T21:40:49.382Z,0
2017-10-15T21:41:51.112Z,0
2017-10-15T21:42:53.031Z,0
2017-10-15T21:43:54.858Z,0
2017-10-15T21:44:56.762Z,0
2017-10-15T21:45:58.637Z,0
2017-10-15T21:47:01.399Z,0
2017-10-15T21:48:03.646Z,0
2017-10-15T21:49:05.723Z,0
2017-10-15T21:50:07.694Z,0
2017-10-15T21:51:09.586Z,0
2017-10-15T21:52:11.583Z,0
2017-10-15T21:53:13.323Z,0
2017-10-15T21:54:15.575Z,0
2017-10-15T21:55:17.261Z,0
2017-10-15T21:56:20.928Z,0
2017-10-15T21:57:22.653Z,0
2017-10-15T21:58:24.961Z,0
2017-10-15T21:59:27.770Z,0
2017-10-15T22:00:29.904Z,0
2017-10-15T22:01:31.551Z,0
2017-10-15T22:02:33.423Z,0
2017-10-15T22:03:35.487Z,0
2017-10-15T22:04:37.347Z,0
2017-10-15T22:05:39.175Z,0
2017-10-15T22:06:41.407Z,0
2017-10-15T22:07:43.193Z,0
2017-10-15T22:08:44.997Z,0
2017-10-15T22:09:47.095Z,0
2017-10-15T22:10:49.079Z,0
2017-10-15T22:11:51.164Z,0
2017-10-15T22:12:53.261Z,0
2017-10-15T22:13:55.205Z,0
2017-10-15T22:14:57.014Z,0
2017-10-15T22:15:58.797Z,0
2017-10-15T22:17:00.703Z,0
2017-10-15T22:18:02.538Z,0
2017-10-15T22:19:04.299Z,0
2017-10-15T22:20:06.392Z,0
2017-10-15T22:21:08.013Z,0
2017-10-15T22:22:09.603Z,0
2017-10-15T22:23:11.268Z,0
2017-10-15T22:24:12.983Z,0
2017-10-15T22:25:14.734Z,0
2017-10-15T22:26:16.446Z,0
2017-10-15T22:27:18.457Z,0
2017-10-15T22:28:20.232Z,0
2017-10-15T22:29:22.226Z,0
2017-10-15T22:30:24.076Z,0
2017-10-15T22:31:25.880Z,0
2017-10-15T22:32:27.683Z,0
2017-10-15T22:33:29.838Z,0
2017-10-15T22:34:31.726Z,0
2017-10-15T22:35:33.521Z,0
2017-10-15T22:36:35.313Z,0
2017-10-15T22:37:37.167Z,0
2017-10-15T22:38:38.889Z,0
2017-10-15T22:39:40.742Z,0
2017-10-15T22:40:42.401Z,0
2017-10-15T22:41:44.177Z,0
2017-10-15T22:42:46.036Z,0
2017-10-15T22:43:47.943Z,0
2017-10-15T22:44:49.724Z,0
2017-10-15T22:45:51.624Z,0
2017-10-15T22:46:53.441Z,0
2017-10-15T22:47:55.065Z,0
2017-10-15T22:48:56.755Z,0
2017-10-15T22:49:58.395Z,0
2017-10-15T22:51:00.163Z,0
2017-10-15T22:52:01.865Z,0
2017-10-15T22:53:03.707Z,0
2017-10-15T22:54:05.370Z,0
2017-10-15T22:55:07.213Z,0
2017-10-15T22:56:08.980Z,0
2017-10-15T22:57:10.680Z,0
2017-10-15T22:58:12.530Z,0
2017-10-15T23:00:04.961Z,0
2017-10-15T23:03:44.703Z,0
2017-10-15T23:04:46.377Z,0
2017-10-15T23:05:48.194Z,0
2017-10-15T23:06:49.940Z,0
2017-10-15T23:07:51.777Z,0
2017-10-15T23:08:53.543Z,0
2017-10-15T23:09:55.424Z,0
2017-10-15T23:10:57.069Z,0
2017-10-15T23:11:58.684Z,0
2017-10-15T23:13:00.285Z,0
2017-10-15T23:14:01.873Z,0
2017-10-15T23:15:03.574Z,0
2017-10-15T23:16:05.472Z,0
2017-10-15T23:17:07.414Z,0
2017-10-15T23:18:09.374Z,0
2017-10-15T23:19:11.944Z,0
2017-10-15T23:20:13.855Z,0
2017-10-15T23:21:15.863Z,0
2017-10-15T23:22:17.507Z,0
2017-10-15T23:23:19.376Z,0
2017-10-15T23:24:21.382Z,0
2017-10-15T23:25:23.362Z,0
2017-10-15T23:26:25.239Z,0
2017-10-15T23:27:27.212Z,0
2017-10-15T23:28:29.105Z,0
2017-10-15T23:29:30.905Z,0
2017-10-15T23:30:33.316Z,0
2017-10-15T23:31:35.238Z,0
2017-10-15T23:32:37.190Z,0
2017-10-15T23:33:38.989Z,0
2017-10-15T23:34:40.833Z,0
2017-10-15T23:35:42.776Z,0
2017-10-15T23:36:44.827Z,0
2017-10-15T23:37:46.767Z,0
2017-10-15T23:38:48.492Z,0
2017-10-15T23:39:50.408Z,0
2017-10-15T23:40:52.323Z,0
2017-10-15T23:41:54.281Z,0
2017-10-15T23:42:56.217Z,0
2017-10-15T23:43:58.100Z,0
2017-10-15T23:45:00.071Z,0
2017-10-15T23:46:02.024Z,0
2017-10-15T23:47:03.961Z,0
2017-10-15T23:48:05.781Z,0
2017-10-15T23:49:07.591Z,0
2017-10-15T23:50:09.532Z,0
2017-10-15T23:51:11.542Z,0
2017-10-15T23:52:13.406Z,0
2017-10-15T23:53:15.298Z,0
2017-10-15T23:54:17.135Z,0
2017-10-15T23:55:18.944Z,0
2017-10-15T23:56:20.901Z,0
2017-10-15T23:57:22.957Z,0
2017-10-15T23:58:24.610Z,0
2017-10-15T23:59:26.473Z,0
